createdAt,value
2022-11-09T00:02:38.265Z,396.46
2022-11-09T00:07:42.934Z,395.21
2022-11-09T00:12:50.084Z,395.24
2022-11-09T00:17:57.489Z,395.23
2022-11-09T00:23:04.869Z,395.09
2022-11-09T00:28:12.321Z,395.97
2022-11-09T00:33:22.266Z,396.27
2022-11-09T00:38:29.453Z,396.65
2022-11-09T00:43:36.690Z,397.18
2022-11-09T00:48:43.970Z,396.55
2022-11-09T00:53:51.124Z,396.26
2022-11-09T00:59:00.780Z,397.47
2022-11-09T01:04:08.092Z,396.77
2022-11-09T01:09:15.242Z,396.77
2022-11-09T01:14:22.567Z,396.78
2022-11-09T01:19:29.824Z,396.62
2022-11-09T01:24:37.254Z,397.85
2022-11-09T01:29:44.589Z,397.59
2022-11-09T01:34:51.881Z,397.27
2022-11-09T01:39:59.197Z,397.02
2022-11-09T01:45:06.578Z,397.71
2022-11-09T01:50:13.946Z,398.24
2022-11-09T01:55:21.175Z,398.22
2022-11-09T02:00:28.610Z,398.41
2022-11-09T02:05:37.434Z,399.40
2022-11-09T02:10:44.555Z,399.74
2022-11-09T02:15:51.769Z,399.94
2022-11-09T02:20:59.120Z,400.18
2022-11-09T02:26:06.371Z,400.43
2022-11-09T02:31:13.646Z,400.83
2022-11-09T02:36:20.849Z,400.59
2022-11-09T02:41:28.017Z,400.08
2022-11-09T02:46:35.236Z,399.82
2022-11-09T02:51:42.449Z,400.19
2022-11-09T02:56:49.644Z,398.94
2022-11-09T03:01:56.942Z,399.62
2022-11-09T03:07:04.274Z,400.33
2022-11-09T03:12:11.382Z,400.14
2022-11-09T03:17:18.551Z,401.17
2022-11-09T03:22:25.895Z,401.46
2022-11-09T03:27:33.109Z,401.00
2022-11-09T03:32:40.483Z,400.53
2022-11-09T03:37:47.753Z,400.41
2022-11-09T03:42:54.979Z,400.84
2022-11-09T03:48:02.226Z,400.39
2022-11-09T03:53:09.534Z,400.75
2022-11-09T03:58:16.758Z,399.94
2022-11-09T04:03:24.155Z,400.52
2022-11-09T04:08:31.353Z,399.96
2022-11-09T04:13:38.530Z,400.04
2022-11-09T04:18:45.704Z,398.55
2022-11-09T04:23:52.967Z,397.98
2022-11-09T04:29:00.156Z,398.60
2022-11-09T04:34:07.345Z,398.56
2022-11-09T04:39:14.608Z,399.47
2022-11-09T04:44:21.792Z,399.33
2022-11-09T04:49:28.970Z,400.01
2022-11-09T04:54:36.206Z,399.12
2022-11-09T04:59:43.321Z,397.16
2022-11-09T05:04:50.556Z,396.36
2022-11-09T05:09:57.803Z,396.31
2022-11-09T05:15:04.976Z,394.86
2022-11-09T05:20:12.184Z,393.89
2022-11-09T05:25:19.411Z,392.98
2022-11-09T05:30:26.571Z,392.19
2022-11-09T05:35:33.765Z,391.21
2022-11-09T05:40:41.147Z,390.23
2022-11-09T05:45:48.193Z,389.79
2022-11-09T05:50:55.418Z,389.67
2022-11-09T05:56:02.653Z,389.94
2022-11-09T06:01:09.876Z,388.52
2022-11-09T06:06:17.138Z,387.39
2022-11-09T06:11:24.729Z,387.99
2022-11-09T06:16:31.542Z,388.15
2022-11-09T06:21:38.738Z,387.60
2022-11-09T06:26:45.960Z,386.73
2022-11-09T06:31:53.144Z,385.91
2022-11-09T06:37:00.361Z,384.89
2022-11-09T06:42:07.630Z,383.17
2022-11-09T06:47:16.282Z,383.25
2022-11-09T06:52:23.472Z,382.62
2022-11-09T06:57:30.612Z,382.36
2022-11-09T07:02:37.809Z,382.06
2022-11-09T07:07:44.929Z,381.83
2022-11-09T07:12:52.076Z,381.07
2022-11-09T07:17:59.257Z,380.77
2022-11-09T07:23:06.408Z,380.51
2022-11-09T07:28:14.768Z,379.93
2022-11-09T07:33:22.197Z,379.58
2022-11-09T07:38:29.111Z,379.86
2022-11-09T07:43:36.326Z,380.55
2022-11-09T07:48:43.567Z,379.94
2022-11-09T07:53:50.804Z,379.81
2022-11-09T07:58:58.090Z,379.33
2022-11-09T08:04:05.223Z,379.83
2022-11-09T08:09:12.482Z,380.26
2022-11-09T08:14:19.741Z,380.54
2022-11-09T08:19:26.973Z,381.19
2022-11-09T08:24:34.304Z,381.29
2022-11-09T08:29:41.599Z,381.42
2022-11-09T08:34:48.828Z,381.65
2022-11-09T08:39:56.053Z,380.88
2022-11-09T08:45:03.325Z,380.69
2022-11-09T08:50:12.622Z,380.33
2022-11-09T08:55:19.811Z,380.82
2022-11-09T09:00:27.155Z,381.18
2022-11-09T09:05:34.262Z,380.78
2022-11-09T09:10:41.555Z,380.48
2022-11-09T09:15:48.777Z,381.00
2022-11-09T09:20:58.263Z,381.30
2022-11-09T09:26:05.404Z,381.04
2022-11-09T09:31:18.110Z,381.26
2022-11-09T09:36:19.922Z,381.44
2022-11-09T09:41:29.888Z,381.74
2022-11-09T09:46:37.114Z,382.11
2022-11-09T09:51:44.359Z,382.27
2022-11-09T09:56:51.607Z,382.59
2022-11-09T10:01:59.467Z,383.06
2022-11-09T10:07:09.109Z,382.83
2022-11-09T10:12:16.237Z,382.94
2022-11-09T10:17:23.570Z,383.74
2022-11-09T10:22:30.836Z,384.88
2022-11-09T10:27:38.072Z,383.75
2022-11-09T10:32:45.326Z,384.17
2022-11-09T10:37:52.473Z,385.21
2022-11-09T10:42:59.732Z,386.13
2022-11-09T10:48:07.153Z,385.94
2022-11-09T10:53:14.720Z,385.96
2022-11-09T10:58:22.274Z,386.26
2022-11-09T11:03:29.151Z,387.37
2022-11-09T11:08:36.372Z,387.93
2022-11-09T11:13:43.603Z,387.73
2022-11-09T11:18:50.895Z,387.84
2022-11-09T11:23:58.090Z,388.10
2022-11-09T11:29:05.367Z,387.99
2022-11-09T11:34:18.982Z,389.66
2022-11-09T11:39:19.912Z,388.98
2022-11-09T11:44:27.118Z,389.43
2022-11-09T11:49:34.426Z,390.70
2022-11-09T11:54:41.665Z,391.67
2022-11-09T11:59:49.950Z,393.01
2022-11-09T12:04:57.295Z,393.83
2022-11-09T12:10:04.557Z,394.66
2022-11-09T12:15:11.792Z,394.80
2022-11-09T12:20:19.101Z,394.33
2022-11-09T12:25:26.297Z,394.28
2022-11-09T12:30:33.527Z,394.87
2022-11-09T12:35:40.906Z,394.23
2022-11-09T12:40:48.801Z,394.94
2022-11-09T12:45:56.017Z,394.95
2022-11-09T12:51:03.222Z,395.05
2022-11-09T12:56:10.485Z,395.23
2022-11-09T13:01:17.773Z,395.20
2022-11-09T13:06:25.098Z,394.88
2022-11-09T13:11:32.280Z,394.47
2022-11-09T13:16:39.567Z,394.28
2022-11-09T13:21:46.823Z,393.84
2022-11-09T13:26:54.053Z,393.94
2022-11-09T13:32:01.273Z,394.16
2022-11-09T13:37:08.552Z,393.65
2022-11-09T13:42:15.765Z,393.11
2022-11-09T13:47:22.953Z,393.21
2022-11-09T13:52:30.206Z,393.09
2022-11-09T13:57:37.388Z,393.66
2022-11-09T14:02:44.603Z,392.58
2022-11-09T14:07:51.843Z,392.64
2022-11-09T14:12:59.017Z,391.80
2022-11-09T14:18:09.208Z,391.65
2022-11-09T14:23:16.533Z,391.78
2022-11-09T14:28:23.741Z,391.23
2022-11-09T14:33:30.977Z,390.18
2022-11-09T14:38:38.260Z,389.49
2022-11-09T14:43:45.523Z,388.94
2022-11-09T14:48:52.778Z,387.96
2022-11-09T14:54:00.081Z,387.99
2022-11-09T14:59:07.239Z,387.37
2022-11-09T15:04:14.449Z,387.39
2022-11-09T15:09:21.854Z,387.60
2022-11-09T15:14:30.049Z,386.14
2022-11-09T15:19:37.278Z,385.70
2022-11-09T15:24:46.289Z,385.36
2022-11-09T15:29:51.801Z,385.22
2022-11-09T15:34:59.051Z,384.58
2022-11-09T15:40:06.439Z,384.55
2022-11-09T15:45:13.563Z,384.26
2022-11-09T15:50:20.845Z,383.66
2022-11-09T15:55:28.112Z,383.15
2022-11-09T16:00:35.430Z,382.02
2022-11-09T16:05:42.578Z,381.36
2022-11-09T16:10:49.783Z,380.73
2022-11-09T16:15:57.043Z,380.33
2022-11-09T16:21:04.284Z,379.25
2022-11-09T16:26:11.622Z,377.78
2022-11-09T16:31:25.294Z,378.30
2022-11-09T16:36:26.204Z,377.68
2022-11-09T16:41:33.450Z,377.49
2022-11-09T16:46:40.956Z,376.20
2022-11-09T16:51:48.679Z,375.46
2022-11-09T16:56:56.228Z,374.99
2022-11-09T17:02:03.660Z,373.98
2022-11-09T17:07:10.784Z,372.77
2022-11-09T17:12:18.074Z,371.40
2022-11-09T17:17:25.216Z,371.09
2022-11-09T17:22:32.466Z,369.61
2022-11-09T17:27:39.746Z,369.00
2022-11-09T17:32:47.344Z,367.70
2022-11-09T17:37:54.894Z,367.30
2022-11-09T17:43:02.495Z,367.25
2022-11-09T17:48:09.902Z,365.99
2022-11-09T17:53:17.392Z,365.42
2022-11-09T17:58:24.786Z,364.33
2022-11-09T18:03:32.309Z,364.02
2022-11-09T18:08:39.634Z,363.46
2022-11-09T18:13:46.886Z,363.09
2022-11-09T18:18:54.440Z,362.47
2022-11-09T18:24:02.043Z,362.33
2022-11-09T18:29:09.351Z,362.03
2022-11-09T18:34:17.150Z,362.96
2022-11-09T18:39:24.888Z,362.32
2022-11-09T18:44:32.544Z,361.64
2022-11-09T18:49:40.125Z,361.00
2022-11-09T18:54:47.577Z,359.99
2022-11-09T18:59:55.066Z,360.13
2022-11-09T19:05:03.251Z,361.07
2022-11-09T19:10:11.239Z,360.58
2022-11-09T19:15:18.826Z,360.14
2022-11-09T19:20:26.430Z,359.36
2022-11-09T19:25:34.143Z,359.32
2022-11-09T19:30:41.772Z,358.41
2022-11-09T19:36:15.072Z,358.55
2022-11-09T19:40:59.439Z,358.18
2022-11-09T19:46:07.178Z,357.28
2022-11-09T19:51:14.764Z,357.69
2022-11-09T19:56:22.900Z,356.81
2022-11-09T20:01:30.250Z,356.97
2022-11-09T20:06:37.636Z,357.01
2022-11-09T20:11:45.425Z,356.99
2022-11-09T20:16:52.850Z,355.84
2022-11-09T20:22:01.549Z,355.84
2022-11-09T20:27:08.896Z,355.42
2022-11-09T20:32:23.020Z,355.39
2022-11-09T20:37:30.666Z,354.17
2022-11-09T20:42:38.280Z,354.22
2022-11-09T20:48:05.180Z,353.85
2022-11-09T20:52:53.512Z,353.62
2022-11-09T20:58:03.194Z,353.86
2022-11-09T21:03:10.718Z,353.16
2022-11-09T21:08:19.251Z,353.11
2022-11-09T21:13:26.285Z,352.90
2022-11-09T21:18:33.685Z,352.58
2022-11-09T21:23:42.173Z,352.01
2022-11-09T21:28:49.511Z,351.55
2022-11-09T21:33:57.293Z,351.50
2022-11-09T21:39:04.669Z,350.67
2022-11-09T21:44:11.905Z,350.12
2022-11-09T21:49:19.143Z,349.90
2022-11-09T21:54:26.351Z,350.25
2022-11-09T21:59:33.594Z,349.94
2022-11-09T22:04:40.863Z,349.59
2022-11-09T22:10:08.770Z,349.74
2022-11-09T22:14:55.311Z,350.05
2022-11-09T22:20:02.564Z,350.26
2022-11-09T22:25:09.773Z,349.59
2022-11-09T22:30:16.979Z,348.48
2022-11-09T22:35:24.205Z,348.57
2022-11-09T22:40:31.376Z,347.97
2022-11-09T22:45:38.577Z,346.40
2022-11-09T22:50:45.819Z,346.49
2022-11-09T22:55:53.039Z,345.99
2022-11-09T23:01:00.277Z,345.96
2022-11-09T23:06:07.538Z,345.72
2022-11-09T23:11:14.728Z,345.38
2022-11-09T23:16:21.963Z,345.29
2022-11-09T23:21:29.223Z,345.35
2022-11-09T23:26:36.404Z,344.79
2022-11-09T23:31:43.628Z,344.91
2022-11-09T23:36:50.896Z,344.42
2022-11-09T23:41:58.133Z,344.87
2022-11-09T23:47:05.362Z,344.59
2022-11-09T23:52:12.674Z,344.74
2022-11-09T23:57:19.850Z,344.03
